Goose Lake, Indiana
Current Conditions -  °F | °C
As of 12:54 AM on Thursday 23 Oct 2014 (Local Time) from KFWA Reporting Station
Light Fog Light Fog  
Wind Chill: 35°   Ceiling: Unl
Heat Index: 35°   Visibility: 8mi
Dew Point: 35°   Wind: 0mph
Humidity: 100%   Direction: NA
Pressure: 30.29"   Gusts: NA
Location:  41.1479°N, 85.4772°W
Report Text: KFWA 230454Z 00000KT 8SM BCFG CLR 02/02 A3029 RMK AO2 SLP264 T00170017 401170011
Loading
Personal Weather Stations






























Interactive Weather Map
Tropical Storm Tracking
New forecast layout! Learn more

10-Day Weather Forecast

Advertisements
Track Severe Weather on mobile